sensor_id;sensor_type;location;lat;lon;timestamp;P1;durP1;ratioP1;P2;durP2;ratioP2
24873;SDS011;12945;42.648;23.370;2023-04-01T00:01:07;25.90;;;10.25;;
24873;SDS011;12945;42.648;23.370;2023-04-01T00:03:33;18.83;;;9.13;;
24873;SDS011;12945;42.648;23.370;2023-04-01T00:05:58;19.25;;;9.43;;
24873;SDS011;12945;42.648;23.370;2023-04-01T00:08:24;19.80;;;9.48;;
24873;SDS011;12945;42.648;23.370;2023-04-01T00:10:50;28.48;;;9.70;;
24873;SDS011;12945;42.648;23.370;2023-04-01T00:13:15;27.92;;;9.73;;
24873;SDS011;12945;42.648;23.370;2023-04-01T00:15:41;18.02;;;9.43;;
24873;SDS011;12945;42.648;23.370;2023-04-01T00:18:07;20.13;;;9.82;;
24873;SDS011;12945;42.648;23.370;2023-04-01T00:20:32;20.35;;;10.55;;
24873;SDS011;12945;42.648;23.370;2023-04-01T00:22:58;25.35;;;10.95;;
24873;SDS011;12945;42.648;23.370;2023-04-01T00:25:23;25.02;;;10.63;;
24873;SDS011;12945;42.648;23.370;2023-04-01T00:27:49;23.75;;;10.80;;
24873;SDS011;12945;42.648;23.370;2023-04-01T00:30:15;28.38;;;10.25;;
24873;SDS011;12945;42.648;23.370;2023-04-01T00:32:40;19.98;;;9.95;;
24873;SDS011;12945;42.648;23.370;2023-04-01T00:35:06;25.60;;;9.13;;
24873;SDS011;12945;42.648;23.370;2023-04-01T00:37:31;25.02;;;10.00;;
24873;SDS011;12945;42.648;23.370;2023-04-01T00:39:59;22.38;;;10.00;;
24873;SDS011;12945;42.648;23.370;2023-04-01T00:42:24;21.58;;;9.88;;
24873;SDS011;12945;42.648;23.370;2023-04-01T00:44:51;20.45;;;9.98;;
24873;SDS011;12945;42.648;23.370;2023-04-01T00:47:17;25.27;;;9.90;;
24873;SDS011;12945;42.648;23.370;2023-04-01T00:49:44;20.75;;;9.30;;
24873;SDS011;12945;42.648;23.370;2023-04-01T00:52:11;18.55;;;9.80;;
24873;SDS011;12945;42.648;23.370;2023-04-01T00:54:37;23.40;;;9.20;;
24873;SDS011;12945;42.648;23.370;2023-04-01T00:57:05;20.75;;;9.40;;
24873;SDS011;12945;42.648;23.370;2023-04-01T00:59:33;21.17;;;9.73;;
24873;SDS011;12945;42.648;23.370;2023-04-01T01:02:01;22.38;;;9.65;;
24873;SDS011;12945;42.648;23.370;2023-04-01T01:04:28;22.40;;;9.38;;
24873;SDS011;12945;42.648;23.370;2023-04-01T01:12:00;17.70;;;7.65;;
24873;SDS011;12945;42.648;23.370;2023-04-01T01:14:39;15.85;;;7.47;;
24873;SDS011;12945;42.648;23.370;2023-04-01T01:27:34;12.48;;;6.97;;
24873;SDS011;12945;42.648;23.370;2023-04-01T01:30:08;17.33;;;7.43;;
24873;SDS011;12945;42.648;23.370;2023-04-01T01:37:49;16.65;;;5.95;;
24873;SDS011;12945;42.648;23.370;2023-04-01T01:40:16;15.18;;;5.68;;
24873;SDS011;12945;42.648;23.370;2023-04-01T01:42:43;14.18;;;6.15;;
24873;SDS011;12945;42.648;23.370;2023-04-01T01:45:09;20.77;;;5.22;;
24873;SDS011;12945;42.648;23.370;2023-04-01T01:47:35;16.80;;;5.60;;
24873;SDS011;12945;42.648;23.370;2023-04-01T01:50:01;16.92;;;6.10;;
24873;SDS011;12945;42.648;23.370;2023-04-01T01:52:28;12.23;;;5.63;;
24873;SDS011;12945;42.648;23.370;2023-04-01T01:54:54;11.93;;;6.05;;
24873;SDS011;12945;42.648;23.370;2023-04-01T01:57:22;15.20;;;5.32;;
24873;SDS011;12945;42.648;23.370;2023-04-01T01:59:48;15.52;;;5.35;;
24873;SDS011;12945;42.648;23.370;2023-04-01T02:02:15;13.95;;;5.10;;
24873;SDS011;12945;42.648;23.370;2023-04-01T02:04:42;21.77;;;5.25;;
24873;SDS011;12945;42.648;23.370;2023-04-01T02:07:10;15.07;;;5.60;;
24873;SDS011;12945;42.648;23.370;2023-04-01T02:09:37;16.88;;;5.60;;
24873;SDS011;12945;42.648;23.370;2023-04-01T02:12:07;12.60;;;5.68;;
24873;SDS011;12945;42.648;23.370;2023-04-01T02:17:06;11.50;;;4.45;;
24873;SDS011;12945;42.648;23.370;2023-04-01T02:19:36;18.88;;;5.15;;
24873;SDS011;12945;42.648;23.370;2023-04-01T02:22:03;17.42;;;4.55;;
24873;SDS011;12945;42.648;23.370;2023-04-01T02:24:29;22.05;;;5.25;;
24873;SDS011;12945;42.648;23.370;2023-04-01T02:26:55;12.38;;;4.65;;
24873;SDS011;12945;42.648;23.370;2023-04-01T02:29:21;14.60;;;4.40;;
24873;SDS011;12945;42.648;23.370;2023-04-01T02:31:48;12.43;;;4.55;;
24873;SDS011;12945;42.648;23.370;2023-04-01T02:34:14;13.15;;;5.15;;
24873;SDS011;12945;42.648;23.370;2023-04-01T02:36:39;16.13;;;5.10;;
24873;SDS011;12945;42.648;23.370;2023-04-01T02:39:05;11.27;;;4.40;;
24873;SDS011;12945;42.648;23.370;2023-04-01T02:41:31;13.93;;;4.55;;
24873;SDS011;12945;42.648;23.370;2023-04-01T02:43:56;12.00;;;5.63;;
24873;SDS011;12945;42.648;23.370;2023-04-01T02:46:23;15.00;;;5.50;;
24873;SDS011;12945;42.648;23.370;2023-04-01T02:48:49;16.67;;;5.20;;
24873;SDS011;12945;42.648;23.370;2023-04-01T02:51:14;17.10;;;6.07;;
24873;SDS011;12945;42.648;23.370;2023-04-01T02:53:39;18.80;;;5.32;;
24873;SDS011;12945;42.648;23.370;2023-04-01T02:56:05;10.88;;;5.05;;
24873;SDS011;12945;42.648;23.370;2023-04-01T02:58:31;14.30;;;5.95;;
24873;SDS011;12945;42.648;23.370;2023-04-01T03:00:57;14.23;;;5.40;;
24873;SDS011;12945;42.648;23.370;2023-04-01T03:03:22;17.05;;;4.50;;
24873;SDS011;12945;42.648;23.370;2023-04-01T03:05:47;14.13;;;5.32;;
24873;SDS011;12945;42.648;23.370;2023-04-01T03:08:28;11.07;;;5.65;;
24873;SDS011;12945;42.648;23.370;2023-04-01T03:10:53;14.70;;;5.80;;
24873;SDS011;12945;42.648;23.370;2023-04-01T03:13:19;16.88;;;5.82;;
24873;SDS011;12945;42.648;23.370;2023-04-01T03:15:44;12.13;;;5.47;;
24873;SDS011;12945;42.648;23.370;2023-04-01T03:18:09;15.52;;;5.97;;
24873;SDS011;12945;42.648;23.370;2023-04-01T03:20:35;17.13;;;6.30;;
24873;SDS011;12945;42.648;23.370;2023-04-01T03:23:00;13.45;;;6.13;;
24873;SDS011;12945;42.648;23.370;2023-04-01T03:25:25;14.40;;;5.93;;
24873;SDS011;12945;42.648;23.370;2023-04-01T03:27:51;16.08;;;5.65;;
24873;SDS011;12945;42.648;23.370;2023-04-01T03:30:17;18.80;;;6.30;;
24873;SDS011;12945;42.648;23.370;2023-04-01T03:32:42;19.17;;;6.20;;
24873;SDS011;12945;42.648;23.370;2023-04-01T03:35:07;25.17;;;7.40;;
24873;SDS011;12945;42.648;23.370;2023-04-01T03:37:34;19.45;;;6.65;;
24873;SDS011;12945;42.648;23.370;2023-04-01T03:39:59;17.95;;;6.90;;
24873;SDS011;12945;42.648;23.370;2023-04-01T03:42:25;24.05;;;8.05;;
24873;SDS011;12945;42.648;23.370;2023-04-01T03:44:50;19.85;;;7.53;;
24873;SDS011;12945;42.648;23.370;2023-04-01T03:47:15;16.83;;;6.82;;
24873;SDS011;12945;42.648;23.370;2023-04-01T03:49:41;13.63;;;6.47;;
24873;SDS011;12945;42.648;23.370;2023-04-01T03:52:08;24.25;;;7.32;;
24873;SDS011;12945;42.648;23.370;2023-04-01T03:54:34;19.92;;;7.60;;
24873;SDS011;12945;42.648;23.370;2023-04-01T03:56:59;19.00;;;6.20;;
24873;SDS011;12945;42.648;23.370;2023-04-01T03:59:24;13.25;;;6.18;;
24873;SDS011;12945;42.648;23.370;2023-04-01T04:01:50;22.85;;;6.30;;
24873;SDS011;12945;42.648;23.370;2023-04-01T04:04:15;28.85;;;7.13;;
24873;SDS011;12945;42.648;23.370;2023-04-01T04:06:41;17.55;;;6.55;;
24873;SDS011;12945;42.648;23.370;2023-04-01T04:09:06;22.63;;;7.97;;
24873;SDS011;12945;42.648;23.370;2023-04-01T04:11:32;16.85;;;8.68;;
24873;SDS011;12945;42.648;23.370;2023-04-01T04:13:59;24.23;;;8.95;;
24873;SDS011;12945;42.648;23.370;2023-04-01T04:16:25;23.27;;;8.32;;
24873;SDS011;12945;42.648;23.370;2023-04-01T04:18:50;19.58;;;8.57;;
24873;SDS011;12945;42.648;23.370;2023-04-01T04:21:16;19.77;;;7.50;;
24873;SDS011;12945;42.648;23.370;2023-04-01T04:23:42;14.98;;;7.50;;
24873;SDS011;12945;42.648;23.370;2023-04-01T04:26:08;14.63;;;7.38;;
24873;SDS011;12945;42.648;23.370;2023-04-01T04:28:33;18.83;;;7.18;;
24873;SDS011;12945;42.648;23.370;2023-04-01T04:30:59;14.45;;;6.60;;
24873;SDS011;12945;42.648;23.370;2023-04-01T04:33:25;15.90;;;6.47;;
24873;SDS011;12945;42.648;23.370;2023-04-01T04:35:50;23.02;;;7.32;;
24873;SDS011;12945;42.648;23.370;2023-04-01T04:38:16;22.02;;;6.57;;
24873;SDS011;12945;42.648;23.370;2023-04-01T04:40:41;19.35;;;6.18;;
24873;SDS011;12945;42.648;23.370;2023-04-01T04:43:07;13.05;;;5.57;;
24873;SDS011;12945;42.648;23.370;2023-04-01T04:45:34;15.55;;;5.07;;
24873;SDS011;12945;42.648;23.370;2023-04-01T04:48:00;17.95;;;5.68;;
24873;SDS011;12945;42.648;23.370;2023-04-01T04:50:25;12.63;;;5.10;;
24873;SDS011;12945;42.648;23.370;2023-04-01T04:52:50;18.05;;;5.13;;
24873;SDS011;12945;42.648;23.370;2023-04-01T04:55:16;17.52;;;5.25;;
24873;SDS011;12945;42.648;23.370;2023-04-01T04:57:41;13.93;;;5.43;;
24873;SDS011;12945;42.648;23.370;2023-04-01T05:00:06;15.20;;;5.60;;
24873;SDS011;12945;42.648;23.370;2023-04-01T05:02:32;16.92;;;5.88;;
24873;SDS011;12945;42.648;23.370;2023-04-01T05:04:57;15.13;;;5.82;;
24873;SDS011;12945;42.648;23.370;2023-04-01T05:07:23;16.23;;;9.10;;
24873;SDS011;12945;42.648;23.370;2023-04-01T05:09:48;25.52;;;7.97;;
24873;SDS011;12945;42.648;23.370;2023-04-01T05:12:14;18.60;;;7.05;;
24873;SDS011;12945;42.648;23.370;2023-04-01T05:14:40;21.08;;;7.22;;
24873;SDS011;12945;42.648;23.370;2023-04-01T05:17:08;19.58;;;6.57;;
24873;SDS011;12945;42.648;23.370;2023-04-01T05:19:33;21.02;;;5.60;;
24873;SDS011;12945;42.648;23.370;2023-04-01T05:22:00;12.55;;;6.60;;
24873;SDS011;12945;42.648;23.370;2023-04-01T05:24:25;22.38;;;8.82;;
24873;SDS011;12945;42.648;23.370;2023-04-01T05:26:50;15.00;;;8.57;;
24873;SDS011;12945;42.648;23.370;2023-04-01T05:29:17;25.35;;;8.77;;
24873;SDS011;12945;42.648;23.370;2023-04-01T05:31:42;20.98;;;9.18;;
24873;SDS011;12945;42.648;23.370;2023-04-01T05:34:07;23.63;;;8.85;;
24873;SDS011;12945;42.648;23.370;2023-04-01T05:36:33;15.88;;;8.15;;
24873;SDS011;12945;42.648;23.370;2023-04-01T05:38:59;17.23;;;8.10;;
24873;SDS011;12945;42.648;23.370;2023-04-01T05:41:24;17.15;;;6.82;;
24873;SDS011;12945;42.648;23.370;2023-04-01T05:43:50;16.05;;;7.20;;
24873;SDS011;12945;42.648;23.370;2023-04-01T05:46:16;15.18;;;6.65;;
24873;SDS011;12945;42.648;23.370;2023-04-01T05:48:41;18.15;;;7.32;;
24873;SDS011;12945;42.648;23.370;2023-04-01T05:51:11;22.15;;;8.18;;
24873;SDS011;12945;42.648;23.370;2023-04-01T05:56:02;14.18;;;7.72;;
24873;SDS011;12945;42.648;23.370;2023-04-01T05:58:28;16.15;;;6.82;;
24873;SDS011;12945;42.648;23.370;2023-04-01T06:00:59;20.42;;;6.38;;
24873;SDS011;12945;42.648;23.370;2023-04-01T06:03:24;12.00;;;5.38;;
24873;SDS011;12945;42.648;23.370;2023-04-01T06:05:50;16.63;;;5.72;;
24873;SDS011;12945;42.648;23.370;2023-04-01T06:08:16;23.48;;;5.78;;
24873;SDS011;12945;42.648;23.370;2023-04-01T06:11:18;13.80;;;5.88;;
24873;SDS011;12945;42.648;23.370;2023-04-01T06:24:12;19.63;;;7.13;;
24873;SDS011;12945;42.648;23.370;2023-04-01T06:26:46;21.40;;;7.35;;
24873;SDS011;12945;42.648;23.370;2023-04-01T06:31:44;15.95;;;6.50;;
24873;SDS011;12945;42.648;23.370;2023-04-01T06:49:51;15.15;;;7.15;;
24873;SDS011;12945;42.648;23.370;2023-04-01T06:54:53;21.02;;;7.70;;
24873;SDS011;12945;42.648;23.370;2023-04-01T06:57:26;17.38;;;7.30;;
24873;SDS011;12945;42.648;23.370;2023-04-01T06:59:55;19.13;;;7.75;;
24873;SDS011;12945;42.648;23.370;2023-04-01T07:04:55;20.33;;;7.07;;
24873;SDS011;12945;42.648;23.370;2023-04-01T07:07:37;16.70;;;6.20;;
24873;SDS011;12945;42.648;23.370;2023-04-01T07:14:57;19.98;;;6.50;;
24873;SDS011;12945;42.648;23.370;2023-04-01T07:17:27;17.95;;;6.35;;
24873;SDS011;12945;42.648;23.370;2023-04-01T07:19:56;13.93;;;7.00;;
24873;SDS011;12945;42.648;23.370;2023-04-01T07:25:04;17.77;;;7.20;;
24873;SDS011;12945;42.648;23.370;2023-04-01T07:27:30;16.75;;;6.75;;
24873;SDS011;12945;42.648;23.370;2023-04-01T07:29:56;18.70;;;7.18;;
24873;SDS011;12945;42.648;23.370;2023-04-01T07:34:55;16.20;;;6.28;;
24873;SDS011;12945;42.648;23.370;2023-04-01T07:43:10;20.92;;;6.72;;
24873;SDS011;12945;42.648;23.370;2023-04-01T07:45:39;14.57;;;7.15;;
24873;SDS011;12945;42.648;23.370;2023-04-01T08:06:24;18.90;;;6.18;;
24873;SDS011;12945;42.648;23.370;2023-04-01T08:09:00;19.48;;;6.40;;
24873;SDS011;12945;42.648;23.370;2023-04-01T08:11:31;17.67;;;6.70;;
24873;SDS011;12945;42.648;23.370;2023-04-01T08:16:29;13.60;;;6.22;;
24873;SDS011;12945;42.648;23.370;2023-04-01T08:21:51;18.48;;;6.43;;
24873;SDS011;12945;42.648;23.370;2023-04-01T08:27:34;17.63;;;6.35;;
24873;SDS011;12945;42.648;23.370;2023-04-01T08:32:34;17.63;;;6.22;;
24873;SDS011;12945;42.648;23.370;2023-04-01T08:37:45;21.70;;;6.03;;
24873;SDS011;12945;42.648;23.370;2023-04-01T08:47:50;19.65;;;6.68;;
24873;SDS011;12945;42.648;23.370;2023-04-01T08:56:05;19.15;;;6.60;;
24873;SDS011;12945;42.648;23.370;2023-04-01T08:58:34;24.00;;;5.20;;
24873;SDS011;12945;42.648;23.370;2023-04-01T09:01:11;14.18;;;5.63;;
24873;SDS011;12945;42.648;23.370;2023-04-01T09:28:07;15.65;;;5.50;;
24873;SDS011;12945;42.648;23.370;2023-04-01T09:40:42;14.60;;;4.70;;
24873;SDS011;12945;42.648;23.370;2023-04-01T09:45:46;13.02;;;4.15;;
24873;SDS011;12945;42.648;23.370;2023-04-01T09:48:19;14.55;;;4.68;;
24873;SDS011;12945;42.648;23.370;2023-04-01T09:50:57;12.45;;;4.22;;
24873;SDS011;12945;42.648;23.370;2023-04-01T10:04:30;15.27;;;4.80;;
24873;SDS011;12945;42.648;23.370;2023-04-01T10:17:45;16.27;;;4.88;;
24873;SDS011;12945;42.648;23.370;2023-04-01T10:22:48;13.65;;;4.80;;
24873;SDS011;12945;42.648;23.370;2023-04-01T10:28:05;11.05;;;4.65;;
24873;SDS011;12945;42.648;23.370;2023-04-01T10:51:12;10.80;;;4.18;;
24873;SDS011;12945;42.648;23.370;2023-04-01T10:53:46;15.75;;;4.05;;
24873;SDS011;12945;42.648;23.370;2023-04-01T11:15:05;16.25;;;4.20;;
24873;SDS011;12945;42.648;23.370;2023-04-01T11:35:54;9.38;;;2.10;;
24873;SDS011;12945;42.648;23.370;2023-04-01T11:46:19;11.50;;;2.35;;
24873;SDS011;12945;42.648;23.370;2023-04-01T11:51:38;9.82;;;2.80;;
24873;SDS011;12945;42.648;23.370;2023-04-01T12:10:24;13.88;;;4.18;;
24873;SDS011;12945;42.648;23.370;2023-04-01T12:13:07;19.20;;;4.53;;
24873;SDS011;12945;42.648;23.370;2023-04-01T12:20:45;12.90;;;4.20;;
24873;SDS011;12945;42.648;23.370;2023-04-01T12:31:00;7.05;;;3.42;;
24873;SDS011;12945;42.648;23.370;2023-04-01T12:36:26;12.93;;;3.75;;
24873;SDS011;12945;42.648;23.370;2023-04-01T12:46:23;11.48;;;4.97;;
24873;SDS011;12945;42.648;23.370;2023-04-01T12:59:33;8.30;;;3.90;;
24873;SDS011;12945;42.648;23.370;2023-04-01T13:02:07;15.93;;;4.30;;
24873;SDS011;12945;42.648;23.370;2023-04-01T13:04:51;11.98;;;4.05;;
24873;SDS011;12945;42.648;23.370;2023-04-01T13:12:28;12.52;;;3.88;;
24873;SDS011;12945;42.648;23.370;2023-04-01T13:15:06;11.65;;;4.38;;
24873;SDS011;12945;42.648;23.370;2023-04-01T13:28:00;5.18;;;1.80;;
24873;SDS011;12945;42.648;23.370;2023-04-01T13:30:33;7.85;;;2.70;;
24873;SDS011;12945;42.648;23.370;2023-04-01T13:35:41;5.03;;;2.00;;
24873;SDS011;12945;42.648;23.370;2023-04-01T13:43:43;3.85;;;2.10;;
24873;SDS011;12945;42.648;23.370;2023-04-01T13:46:22;7.72;;;3.03;;
24873;SDS011;12945;42.648;23.370;2023-04-01T13:49:08;6.88;;;2.70;;
24873;SDS011;12945;42.648;23.370;2023-04-01T13:54:25;6.15;;;2.35;;
24873;SDS011;12945;42.648;23.370;2023-04-01T14:15:40;11.25;;;4.03;;
24873;SDS011;12945;42.648;23.370;2023-04-01T14:21:17;11.25;;;4.95;;
24873;SDS011;12945;42.648;23.370;2023-04-01T14:26:01;13.70;;;5.00;;
24873;SDS011;12945;42.648;23.370;2023-04-01T14:44:05;12.60;;;4.20;;
24873;SDS011;12945;42.648;23.370;2023-04-01T14:49:39;7.15;;;3.45;;
24873;SDS011;12945;42.648;23.370;2023-04-01T14:52:15;8.23;;;3.17;;
24873;SDS011;12945;42.648;23.370;2023-04-01T14:54:44;6.00;;;3.05;;
24873;SDS011;12945;42.648;23.370;2023-04-01T14:57:12;9.25;;;3.53;;
24873;SDS011;12945;42.648;23.370;2023-04-01T14:59:46;10.40;;;3.70;;
24873;SDS011;12945;42.648;23.370;2023-04-01T15:13:03;8.05;;;2.58;;
24873;SDS011;12945;42.648;23.370;2023-04-01T15:18:08;8.52;;;3.28;;
24873;SDS011;12945;42.648;23.370;2023-04-01T15:28:39;11.80;;;4.05;;
24873;SDS011;12945;42.648;23.370;2023-04-01T15:33:51;8.73;;;4.47;;
24873;SDS011;12945;42.648;23.370;2023-04-01T15:38:52;11.43;;;4.00;;
24873;SDS011;12945;42.648;23.370;2023-04-01T15:41:28;9.20;;;4.68;;
24873;SDS011;12945;42.648;23.370;2023-04-01T15:44:01;17.60;;;4.90;;
24873;SDS011;12945;42.648;23.370;2023-04-01T15:59:53;2.15;;;1.50;;
24873;SDS011;12945;42.648;23.370;2023-04-01T16:07:41;3.97;;;2.80;;
24873;SDS011;12945;42.648;23.370;2023-04-01T16:20:43;7.63;;;3.33;;
24873;SDS011;12945;42.648;23.370;2023-04-01T16:25:44;7.43;;;4.07;;
24873;SDS011;12945;42.648;23.370;2023-04-01T16:28:21;7.80;;;3.70;;
24873;SDS011;12945;42.648;23.370;2023-04-01T16:38:50;5.03;;;3.10;;
24873;SDS011;12945;42.648;23.370;2023-04-01T16:41:18;4.43;;;3.45;;
24873;SDS011;12945;42.648;23.370;2023-04-01T16:43:47;6.57;;;3.78;;
24873;SDS011;12945;42.648;23.370;2023-04-01T16:46:16;3.90;;;2.97;;
24873;SDS011;12945;42.648;23.370;2023-04-01T16:51:16;4.03;;;3.00;;
24873;SDS011;12945;42.648;23.370;2023-04-01T16:53:47;3.30;;;2.53;;
24873;SDS011;12945;42.648;23.370;2023-04-01T16:56:23;3.05;;;2.25;;
24873;SDS011;12945;42.648;23.370;2023-04-01T17:01:43;3.40;;;2.38;;
24873;SDS011;12945;42.648;23.370;2023-04-01T17:04:07;3.33;;;2.40;;
24873;SDS011;12945;42.648;23.370;2023-04-01T17:09:15;2.13;;;1.77;;
24873;SDS011;12945;42.648;23.370;2023-04-01T17:14:28;3.10;;;2.00;;
24873;SDS011;12945;42.648;23.370;2023-04-01T17:17:01;3.15;;;1.80;;
24873;SDS011;12945;42.648;23.370;2023-04-01T17:22:31;2.47;;;1.75;;
24873;SDS011;12945;42.648;23.370;2023-04-01T17:27:51;2.58;;;1.80;;
24873;SDS011;12945;42.648;23.370;2023-04-01T17:30:28;1.25;;;1.15;;
24873;SDS011;12945;42.648;23.370;2023-04-01T17:46:27;3.15;;;2.08;;
24873;SDS011;12945;42.648;23.370;2023-04-01T17:51:34;3.28;;;2.25;;
24873;SDS011;12945;42.648;23.370;2023-04-01T17:54:16;3.08;;;2.00;;
24873;SDS011;12945;42.648;23.370;2023-04-01T18:24:32;6.35;;;4.05;;
24873;SDS011;12945;42.648;23.370;2023-04-01T18:29:47;5.05;;;3.55;;
24873;SDS011;12945;42.648;23.370;2023-04-01T18:32:17;5.03;;;3.90;;
24873;SDS011;12945;42.648;23.370;2023-04-01T18:34:55;5.28;;;3.65;;
24873;SDS011;12945;42.648;23.370;2023-04-01T18:37:37;5.07;;;3.53;;
24873;SDS011;12945;42.648;23.370;2023-04-01T18:42:46;4.57;;;3.28;;
24873;SDS011;12945;42.648;23.370;2023-04-01T18:47:44;6.43;;;3.55;;
24873;SDS011;12945;42.648;23.370;2023-04-01T18:50:27;5.82;;;2.92;;
24873;SDS011;12945;42.648;23.370;2023-04-01T18:52:57;4.45;;;3.08;;
24873;SDS011;12945;42.648;23.370;2023-04-01T18:55:32;5.05;;;3.25;;
24873;SDS011;12945;42.648;23.370;2023-04-01T18:58:46;4.50;;;2.90;;
24873;SDS011;12945;42.648;23.370;2023-04-01T19:00:47;5.03;;;3.10;;
24873;SDS011;12945;42.648;23.370;2023-04-01T19:03:24;5.82;;;2.83;;
24873;SDS011;12945;42.648;23.370;2023-04-01T19:05:52;3.33;;;2.60;;
24873;SDS011;12945;42.648;23.370;2023-04-01T19:23:50;3.45;;;2.30;;
24873;SDS011;12945;42.648;23.370;2023-04-01T22:27:19;2.63;;;1.70;;
24873;SDS011;12945;42.648;23.370;2023-04-01T22:32:26;2.75;;;1.55;;
24873;SDS011;12945;42.648;23.370;2023-04-01T22:37:22;6.38;;;1.38;;
24873;SDS011;12945;42.648;23.370;2023-04-01T22:49:59;2.88;;;1.10;;
24873;SDS011;12945;42.648;23.370;2023-04-01T22:52:33;2.17;;;1.30;;
24873;SDS011;12945;42.648;23.370;2023-04-01T22:55:04;2.08;;;1.10;;
24873;SDS011;12945;42.648;23.370;2023-04-01T22:57:52;3.38;;;1.00;;
24873;SDS011;12945;42.648;23.370;2023-04-01T23:00:23;3.42;;;1.10;;
24873;SDS011;12945;42.648;23.370;2023-04-01T23:05:17;4.85;;;1.25;;
24873;SDS011;12945;42.648;23.370;2023-04-01T23:12:50;2.60;;;1.25;;
24873;SDS011;12945;42.648;23.370;2023-04-01T23:15:17;2.47;;;0.98;;
24873;SDS011;12945;42.648;23.370;2023-04-01T23:20:21;1.42;;;1.10;;
24873;SDS011;12945;42.648;23.370;2023-04-01T23:38:08;3.55;;;1.13;;
24873;SDS011;12945;42.648;23.370;2023-04-01T23:40:34;1.38;;;0.80;;
24873;SDS011;12945;42.648;23.370;2023-04-01T23:43:00;1.85;;;0.70;;
24873;SDS011;12945;42.648;23.370;2023-04-01T23:45:25;0.90;;;0.70;;
24873;SDS011;12945;42.648;23.370;2023-04-01T23:47:51;2.63;;;1.02;;
24873;SDS011;12945;42.648;23.370;2023-04-01T23:50:21;3.65;;;1.27;;
24873;SDS011;12945;42.648;23.370;2023-04-01T23:52:48;1.70;;;0.98;;
24873;SDS011;12945;42.648;23.370;2023-04-01T23:55:17;2.33;;;0.73;;
24873;SDS011;12945;42.648;23.370;2023-04-01T23:57:43;3.30;;;1.30;;
